Time;durP1;ratioP1;P1;durP2;ratioP2;P2;SDS_P1;SDS_P2;PMS_P1;PMS_P2;Temp;Humidity;BMP_temperature;BMP_pressure;BME280_temperature;BME280_humidity;BME280_pressure;Samples;Min_cycle;Max_cycle;Signal;HPM_P1;HPM_P2
2022/04/27 00:01:49;;;;;;;4.32;1.80;;;;;;;18.10;72.55;99833.00;5134741;27;20027;-70
2022/04/27 00:04:15;;;;;;;6.63;2.28;;;;;;;17.94;72.75;99836.91;5128003;27;20031;-72
2022/04/27 00:06:40;;;;;;;6.40;2.85;;;;;;;17.53;75.07;99848.59;5132363;27;20055;-70
2022/04/27 00:09:06;;;;;;;9.15;3.13;;;;;;;17.18;77.49;99845.25;5131880;27;20032;-72
2022/04/27 00:11:31;;;;;;;7.00;2.75;;;;;;;16.82;81.23;99836.72;5127515;27;20224;-70
2022/04/27 00:14:00;;;;;;;5.47;2.67;;;;;;;16.68;82.87;99827.81;5130708;27;20034;-70
2022/04/27 00:16:26;;;;;;;6.03;2.63;;;;;;;16.65;83.22;99828.22;5135180;27;20022;-70
2022/04/27 00:18:52;;;;;;;4.35;2.90;;;;;;;16.80;82.41;99826.22;5131587;27;20094;-72
2022/04/27 00:21:17;;;;;;;4.22;2.85;;;;;;;16.54;84.12;99821.50;5133836;27;20250;-70
2022/04/27 00:23:43;;;;;;;8.30;2.58;;;;;;;16.67;83.87;99825.34;5125384;27;20031;-69
2022/04/27 00:26:09;;;;;;;5.22;2.22;;;;;;;16.65;83.24;99827.34;5124271;28;20027;-70
2022/04/27 00:28:35;;;;;;;4.15;2.58;;;;;;;16.65;83.03;99827.34;5124148;27;20023;-69
2022/04/27 00:31:00;;;;;;;3.53;1.85;;;;;;;16.70;83.28;99823.09;5136504;27;20030;-70
2022/04/27 00:33:25;;;;;;;6.60;2.08;;;;;;;16.57;83.56;99817.63;5143716;27;20057;-72
2022/04/27 00:35:52;;;;;;;4.40;1.88;;;;;;;16.65;83.17;99822.00;5133322;27;20043;-72
2022/04/27 00:38:18;;;;;;;3.53;2.03;;;;;;;16.55;83.42;99823.16;5130488;27;20262;-72
2022/04/27 00:40:44;;;;;;;3.97;1.80;;;;;;;16.35;84.74;99822.25;5132183;27;20206;-72
2022/04/27 00:43:12;;;;;;;4.03;2.00;;;;;;;16.29;85.38;99818.50;5126629;27;20023;-71
2022/04/27 00:45:37;;;;;;;3.70;1.90;;;;;;;16.37;84.10;99801.50;5133552;27;20046;-72
2022/04/27 00:48:03;;;;;;;5.45;2.13;;;;;;;16.29;84.03;99815.00;5133122;27;20023;-72
2022/04/27 00:50:29;;;;;;;2.90;1.95;;;;;;;16.21;84.56;99813.31;5131596;27;20027;-72
2022/04/27 00:52:55;;;;;;;4.10;2.10;;;;;;;16.24;83.97;99817.44;5130819;27;20028;-72
2022/04/27 00:55:21;;;;;;;5.70;1.95;;;;;;;15.99;85.13;99810.94;5128163;27;20034;-72
2022/04/27 00:57:47;;;;;;;6.10;2.05;;;;;;;16.19;83.29;99814.53;5129258;27;20347;-72
2022/04/27 01:00:14;;;;;;;2.25;1.67;;;;;;;16.33;82.74;99807.44;5121936;28;20087;-70
2022/04/27 01:02:40;;;;;;;3.58;1.90;;;;;;;16.23;82.53;99799.78;5122874;27;20028;-70
2022/04/27 01:05:09;;;;;;;4.63;1.80;;;;;;;16.14;83.38;99804.44;5129757;27;20244;-72
2022/04/27 01:07:39;;;;;;;2.63;1.80;;;;;;;16.06;83.62;99809.94;5141406;27;20027;-72
2022/04/27 01:10:07;;;;;;;3.85;1.90;;;;;;;16.02;83.45;99803.34;5141985;27;20042;-72
2022/04/27 01:12:32;;;;;;;6.05;2.00;;;;;;;16.05;82.92;99804.81;5133957;27;20028;-69
2022/04/27 01:14:58;;;;;;;3.17;1.85;;;;;;;16.08;82.50;99807.09;5129262;27;20081;-69
2022/04/27 01:17:23;;;;;;;2.67;1.77;;;;;;;16.28;81.88;99800.81;5132217;27;20372;-72
2022/04/27 01:19:49;;;;;;;2.33;1.80;;;;;;;16.35;80.51;99808.88;5128630;27;20072;-72
2022/04/27 01:22:14;;;;;;;2.53;2.20;;;;;;;16.37;81.29;99804.16;5129249;27;20019;-70
2022/04/27 01:24:40;;;;;;;3.88;1.63;;;;;;;16.39;81.09;99807.47;5128902;28;20251;-70
2022/04/27 01:27:06;;;;;;;3.17;1.77;;;;;;;16.53;80.32;99797.66;5128267;28;20225;-70
2022/04/27 01:29:32;;;;;;;2.75;1.75;;;;;;;16.56;79.37;99791.91;5131241;28;20195;-72
2022/04/27 01:32:00;;;;;;;4.25;1.90;;;;;;;16.58;79.33;99792.53;5130499;28;20035;-70
2022/04/27 01:34:26;;;;;;;5.28;1.58;;;;;;;16.59;79.13;99784.31;5126002;28;20092;-70
2022/04/27 01:36:52;;;;;;;5.90;1.92;;;;;;;16.57;78.69;99789.03;5129000;28;20328;-72
2022/04/27 01:39:17;;;;;;;3.83;1.90;;;;;;;16.36;79.14;99791.81;5128427;28;20027;-72
2022/04/27 01:41:43;;;;;;;4.18;2.28;;;;;;;15.73;81.96;99784.88;5131741;28;20255;-72
2022/04/27 01:44:08;;;;;;;3.85;1.73;;;;;;;15.93;81.73;99783.97;5126604;28;20117;-72
2022/04/27 01:46:34;;;;;;;3.50;1.77;;;;;;;16.23;79.55;99799.78;5109271;28;20309;-72
2022/04/27 01:49:00;;;;;;;2.78;1.77;;;;;;;16.27;79.58;99801.03;5122544;28;20361;-70
2022/04/27 01:54:16;;;;;;;3.72;2.00;;;;;;;16.29;79.20;99793.63;5128595;28;20095;-70
2022/04/27 01:56:50;;;;;;;2.25;2.00;;;;;;;16.21;79.01;99797.28;5129522;28;20043;-70
2022/04/27 01:59:16;;;;;;;4.40;2.17;;;;;;;16.02;79.50;99799.84;5129209;28;20027;-70
2022/04/27 02:01:42;;;;;;;5.15;2.13;;;;;;;16.12;79.59;99798.47;5125240;28;20032;-72
2022/04/27 02:04:08;;;;;;;5.78;2.22;;;;;;;16.11;79.01;99796.81;5126987;27;20027;-70
2022/04/27 02:06:37;;;;;;;6.10;2.38;;;;;;;16.04;79.04;99790.63;5133114;27;20348;-70
2022/04/27 02:09:04;;;;;;;3.15;1.90;;;;;;;15.92;80.01;99790.34;5125066;28;20032;-72
2022/04/27 02:11:30;;;;;;;6.00;2.45;;;;;;;16.04;79.38;99789.78;5125928;27;20038;-72
2022/04/27 02:13:55;;;;;;;2.63;2.10;;;;;;;16.05;78.71;99791.44;5131627;27;20036;-72
2022/04/27 02:16:28;;;;;;;5.22;2.10;;;;;;;16.06;78.34;99793.91;5123144;27;20301;-71
2022/04/27 02:18:55;;;;;;;6.00;1.90;;;;;;;16.04;78.34;99793.28;5132775;27;20036;-72
2022/04/27 02:21:21;;;;;;;2.67;2.10;;;;;;;16.08;78.03;99797.22;5128819;27;20294;-72
2022/04/27 02:23:49;;;;;;;5.07;2.42;;;;;;;15.94;78.11;99790.97;5135665;27;20312;-72
2022/04/27 02:26:15;;;;;;;2.83;2.08;;;;;;;15.92;78.69;99790.34;5129638;27;20024;-70
2022/04/27 02:28:41;;;;;;;4.82;2.40;;;;;;;16.00;77.98;99792.03;5136326;27;20070;-72
2022/04/27 02:31:07;;;;;;;3.15;2.08;;;;;;;15.93;78.45;99793.84;5145165;27;20034;-72
2022/04/27 02:33:33;;;;;;;5.22;2.17;;;;;;;15.80;79.33;99789.22;5138351;27;20079;-71
2022/04/27 02:35:59;;;;;;;4.88;2.28;;;;;;;15.86;78.76;99779.63;5131369;27;20062;-72
2022/04/27 02:38:24;;;;;;;4.93;2.00;;;;;;;15.91;78.36;99785.19;5129512;27;20051;-72
2022/04/27 02:40:50;;;;;;;5.50;2.38;;;;;;;15.75;78.91;99780.97;5135494;27;20217;-72
2022/04/27 02:43:16;;;;;;;5.07;1.98;;;;;;;15.78;79.17;99782.44;5112735;27;20027;-70
2022/04/27 02:45:42;;;;;;;5.78;2.33;;;;;;;15.80;78.98;99789.22;5132182;27;20051;-70
2022/04/27 02:48:09;;;;;;;7.00;2.20;;;;;;;15.78;79.09;99779.78;5105915;28;20027;-72
2022/04/27 02:53:19;;;;;;;6.07;2.70;;;;;;;15.72;79.57;99788.56;5128900;27;20030;-69
2022/04/27 02:55:44;;;;;;;4.72;2.58;;;;;;;15.71;79.67;99795.75;5131410;27;20035;-70
2022/04/27 02:58:10;;;;;;;7.68;2.92;;;;;;;15.66;80.02;99794.66;5129432;27;20054;-70
2022/04/27 03:00:36;;;;;;;5.93;2.90;;;;;;;15.73;79.96;99792.88;5132897;27;20035;-72
2022/04/27 03:03:02;;;;;;;4.32;2.65;;;;;;;15.70;80.45;99796.75;5132326;27;20035;-70
2022/04/27 03:05:28;;;;;;;10.15;2.80;;;;;;;15.71;80.35;99794.91;5132035;27;20255;-72
2022/04/27 03:07:53;;;;;;;9.98;3.05;;;;;;;15.73;79.91;99792.88;5131261;27;20035;-72
2022/04/27 03:10:20;;;;;;;5.80;2.88;;;;;;;15.75;79.44;99797.00;5128600;27;20035;-70
2022/04/27 03:12:45;;;;;;;7.53;2.83;;;;;;;15.71;80.05;99792.25;5132577;27;20027;-72
2022/04/27 03:15:11;;;;;;;4.50;2.65;;;;;;;15.66;80.10;99800.00;5138494;27;20045;-70
2022/04/27 03:17:36;;;;;;;5.72;2.67;;;;;;;15.62;80.32;99799.56;5123758;28;20024;-71
2022/04/27 03:20:02;;;;;;;8.20;2.75;;;;;;;15.62;79.88;99800.41;5124266;27;20094;-70
2022/04/27 03:22:28;;;;;;;7.72;3.00;;;;;;;15.48;80.36;99795.06;5130541;27;20038;-72
2022/04/27 03:24:54;;;;;;;5.28;2.70;;;;;;;15.52;80.17;99797.16;5133219;27;20035;-69
2022/04/27 03:27:19;;;;;;;3.90;2.65;;;;;;;15.55;79.12;99810.13;5117383;27;20030;-70
2022/04/27 03:29:44;;;;;;;7.20;2.85;;;;;;;15.41;79.76;99810.19;5131258;27;20039;-69
2022/04/27 03:32:10;;;;;;;6.28;2.38;;;;;;;15.37;80.11;99809.75;5128440;27;20034;-72
2022/04/27 03:34:36;;;;;;;7.38;2.80;;;;;;;15.33;80.53;99813.81;5133274;27;20039;-72
2022/04/27 03:37:02;;;;;;;7.35;2.90;;;;;;;15.48;79.40;99811.09;5134951;27;20031;-70
2022/04/27 03:39:27;;;;;;;4.07;2.35;;;;;;;15.50;78.73;99817.06;5131047;27;20102;-72
2022/04/27 03:41:53;;;;;;;2.95;2.30;;;;;;;15.63;77.98;99814.56;5133302;27;20045;-70
2022/04/27 03:44:18;;;;;;;3.75;2.50;;;;;;;15.69;77.82;99818.31;5134535;27;20341;-70
2022/04/27 03:46:44;;;;;;;6.10;2.60;;;;;;;15.76;77.12;99833.34;5129882;27;20090;-72
2022/04/27 03:49:09;;;;;;;5.25;2.58;;;;;;;15.75;76.87;99826.38;5113307;27;20084;-71
2022/04/27 03:51:34;;;;;;;3.90;2.67;;;;;;;15.37;78.17;99822.28;5137193;27;20070;-72
2022/04/27 03:54:00;;;;;;;7.68;2.75;;;;;;;15.45;77.79;99814.97;5130267;27;20282;-72
2022/04/27 03:56:26;;;;;;;6.15;2.38;;;;;;;15.54;77.63;99824.50;5133735;27;20041;-72
2022/04/27 03:58:51;;;;;;;7.30;2.53;;;;;;;15.55;77.38;99828.81;5127773;27;20049;-72
2022/04/27 04:01:17;;;;;;;5.55;2.40;;;;;;;15.56;77.11;99829.63;5133024;27;20030;-72
2022/04/27 04:03:42;;;;;;;6.88;2.85;;;;;;;15.69;77.30;99845.00;5123782;27;20028;-70
2022/04/27 04:06:08;;;;;;;5.53;3.03;;;;;;;15.70;77.51;99835.97;5131517;27;20027;-70
2022/04/27 04:08:33;;;;;;;6.95;2.80;;;;;;;15.78;76.76;99836.66;5131737;27;20091;-70
2022/04/27 04:10:59;;;;;;;6.95;4.22;;;;;;;15.72;76.91;99837.44;5128663;27;20094;-72
2022/04/27 04:13:24;;;;;;;44.83;27.75;;;;;;;15.69;76.58;99834.31;5122605;28;20027;-70
2022/04/27 04:15:50;;;;;;;26.75;15.68;;;;;;;15.63;76.68;99846.59;5125188;27;20038;-72
2022/04/27 04:18:16;;;;;;;26.95;20.48;;;;;;;15.44;78.08;99847.19;5123905;27;20023;-72
2022/04/27 04:20:41;;;;;;;10.50;7.25;;;;;;;15.62;78.16;99847.63;5122317;28;20241;-70
2022/04/27 04:23:07;;;;;;;16.73;11.25;;;;;;;15.81;77.88;99841.63;5125927;27;20083;-72
2022/04/27 04:28:31;;;;;;;5.45;3.33;;;;;;;16.00;76.61;99850.78;5130198;27;20779;-72
2022/04/27 04:31:04;;;;;;;11.00;4.88;;;;;;;15.91;77.49;99859.97;5130188;27;20065;-72
2022/04/27 04:33:30;;;;;;;4.43;3.20;;;;;;;15.97;76.17;99853.84;5129722;27;20035;-72
2022/04/27 04:35:57;;;;;;;5.53;3.15;;;;;;;15.84;76.55;99853.75;5129736;27;20042;-72
2022/04/27 04:38:23;;;;;;;4.30;3.20;;;;;;;15.87;77.45;99862.19;5112692;27;20114;-70
2022/04/27 04:40:49;;;;;;;6.45;3.70;;;;;;;16.10;76.85;99863.81;5131403;27;20043;-70
2022/04/27 04:43:15;;;;;;;5.35;3.40;;;;;;;16.11;76.55;99854.78;5112633;27;20022;-72
2022/04/27 04:45:41;;;;;;;9.80;4.10;;;;;;;16.23;76.54;99871.91;5126870;27;20250;-70
2022/04/27 04:48:08;;;;;;;7.03;4.43;;;;;;;16.25;77.50;99869.88;5128396;27;20328;-72
2022/04/27 04:50:34;;;;;;;9.68;4.60;;;;;;;16.61;76.86;99875.84;5133695;27;20112;-70
2022/04/27 04:53:00;;;;;;;9.35;3.85;;;;;;;16.60;76.84;99871.50;5131128;27;20340;-70
2022/04/27 04:55:25;;;;;;;10.52;4.38;;;;;;;16.96;75.57;99869.66;5129340;27;20118;-70
2022/04/27 04:57:51;;;;;;;16.45;5.53;;;;;;;17.15;74.73;99877.75;5126618;27;20043;-69
2022/04/27 05:00:16;;;;;;;12.05;6.78;;;;;;;17.31;74.35;99871.22;5131892;27;20015;-72
2022/04/27 05:02:42;;;;;;;6.13;5.38;;;;;;;17.23;74.16;99880.25;5127396;27;20065;-73
2022/04/27 05:05:07;;;;;;;7.25;4.18;;;;;;;17.40;72.91;99887.91;5129507;27;20035;-70
2022/04/27 05:07:34;;;;;;;12.63;7.38;;;;;;;17.37;73.00;99885.63;5129002;27;20031;-72
2022/04/27 05:10:00;;;;;;;9.82;4.05;;;;;;;17.69;72.35;99882.25;5120378;27;20043;-70
2022/04/27 05:12:26;;;;;;;6.43;4.30;;;;;;;18.14;71.01;99883.28;5104308;28;20022;-71
2022/04/27 05:14:52;;;;;;;6.05;3.92;;;;;;;18.41;69.47;99884.06;5119901;28;20283;-71
2022/04/27 05:17:17;;;;;;;7.63;5.35;;;;;;;18.73;67.84;99879.72;5122404;27;20019;-71
2022/04/27 05:19:42;;;;;;;8.43;5.30;;;;;;;18.70;67.60;99882.78;5120183;27;20088;-70
2022/04/27 05:22:08;;;;;;;9.48;4.40;;;;;;;18.83;67.81;99881.94;5106904;28;20019;-71
2022/04/27 05:24:34;;;;;;;7.43;4.70;;;;;;;18.93;67.51;99878.81;5120238;28;20500;-72
2022/04/27 05:26:59;;;;;;;9.23;5.00;;;;;;;19.13;67.75;99876.84;5105643;28;20256;-72
2022/04/27 05:32:10;;;;;;;9.85;5.43;;;;;;;19.40;65.48;99881.03;5122300;28;20407;-72
2022/04/27 05:34:36;;;;;;;10.02;4.90;;;;;;;19.60;65.81;99875.56;5124175;27;20035;-70
2022/04/27 05:37:02;;;;;;;15.48;5.80;;;;;;;19.94;64.64;99876.97;5126957;27;20087;-71
2022/04/27 05:39:28;;;;;;;9.35;5.13;;;;;;;20.33;63.44;99883.03;5114394;27;20031;-71
2022/04/27 05:41:53;;;;;;;9.52;5.68;;;;;;;20.79;61.70;99881.75;5126557;27;20027;-71
2022/04/27 05:44:21;;;;;;;8.75;5.10;;;;;;;20.98;60.44;99888.78;5123352;27;20038;-71
2022/04/27 05:46:48;;;;;;;15.27;5.53;;;;;;;20.98;59.98;99895.00;5126533;27;20087;-72
2022/04/27 05:49:13;;;;;;;10.07;5.35;;;;;;;21.17;59.77;99892.28;5125242;27;20027;-72
2022/04/27 05:51:39;;;;;;;10.27;5.18;;;;;;;21.10;59.49;99899.63;5125531;27;20028;-72
2022/04/27 05:54:04;;;;;;;12.45;5.93;;;;;;;21.23;59.33;99892.22;5125314;27;20206;-72
2022/04/27 05:56:30;;;;;;;8.20;5.30;;;;;;;21.14;59.40;99898.94;5124376;27;20028;-72
2022/04/27 05:58:55;;;;;;;10.45;6.07;;;;;;;21.35;59.10;99897.66;5123921;27;20034;-72
2022/04/27 06:01:21;;;;;;;10.85;5.75;;;;;;;21.20;59.77;99899.88;5125131;27;20409;-70
2022/04/27 06:03:46;;;;;;;8.27;4.82;;;;;;;21.50;58.64;99897.22;5124622;27;20028;-71
2022/04/27 06:06:12;;;;;;;9.18;4.35;;;;;;;21.55;57.95;99900.06;5124778;27;20202;-70
2022/04/27 06:08:38;;;;;;;9.40;3.75;;;;;;;21.72;57.13;99898.34;5124504;27;20363;-70
2022/04/27 06:11:03;;;;;;;10.45;5.00;;;;;;;21.78;56.94;99899.28;5125122;27;20032;-71
2022/04/27 06:13:30;;;;;;;10.07;3.72;;;;;;;21.92;56.68;99895.38;5124155;27;20042;-70
2022/04/27 06:15:56;;;;;;;8.07;4.47;;;;;;;21.89;56.88;99899.34;5124341;27;20058;-71
2022/04/27 06:18:21;;;;;;;5.50;4.22;;;;;;;22.04;55.70;99903.50;5112820;27;20042;-70
2022/04/27 06:20:47;;;;;;;7.72;3.72;;;;;;;21.96;55.76;99902.75;5110413;27;20464;-70
2022/04/27 06:23:13;;;;;;;5.85;3.90;;;;;;;21.81;56.32;99902.34;5124387;27;20199;-71
2022/04/27 06:25:40;;;;;;;6.47;3.88;;;;;;;22.39;55.42;99906.22;5123743;27;20047;-71
2022/04/27 06:28:06;;;;;;;8.68;3.70;;;;;;;22.58;53.83;99905.03;5124953;27;20051;-70
2022/04/27 06:30:35;;;;;;;3.92;2.55;;;;;;;22.26;54.56;99912.66;5109947;27;20218;-71
2022/04/27 06:33:00;;;;;;;6.45;3.70;;;;;;;22.17;55.80;99912.19;5123510;27;20194;-70
2022/04/27 06:35:26;;;;;;;6.38;2.60;;;;;;;22.52;55.17;99914.88;5125245;27;20027;-70
2022/04/27 06:37:52;;;;;;;6.13;3.00;;;;;;;23.01;53.47;99911.94;5130252;27;20028;-70
2022/04/27 06:40:17;;;;;;;7.85;2.40;;;;;;;23.42;52.55;99913.53;5125275;27;20072;-71
2022/04/27 06:42:44;;;;;;;8.55;2.50;;;;;;;23.70;51.84;99916.25;5129555;27;20039;-71
2022/04/27 06:45:10;;;;;;;3.92;1.85;;;;;;;23.86;50.43;99910.03;5127399;27;20043;-71
2022/04/27 06:47:35;;;;;;;4.13;2.20;;;;;;;24.11;50.24;99912.38;5129133;27;20040;-70
2022/04/27 06:50:01;;;;;;;7.82;2.67;;;;;;;24.28;49.40;99903.44;5129501;27;20050;-71
2022/04/27 06:52:26;;;;;;;8.52;2.25;;;;;;;24.31;48.94;99914.59;5127663;27;20111;-73
2022/04/27 06:54:52;;;;;;;4.80;2.22;;;;;;;24.26;48.60;99914.50;5129005;27;20031;-72
2022/04/27 06:57:17;;;;;;;7.30;2.55;;;;;;;24.39;48.63;99913.34;5118858;27;20026;-72
2022/04/27 06:59:43;;;;;;;5.65;2.58;;;;;;;24.77;48.18;99915.25;5127471;27;20210;-72
2022/04/27 07:02:10;;;;;;;5.22;2.53;;;;;;;24.71;47.83;99914.34;5135717;27;20027;-71
2022/04/27 07:04:37;;;;;;;4.38;2.10;;;;;;;24.83;47.81;99915.06;5128969;27;20047;-70
2022/04/27 07:07:04;;;;;;;3.88;2.17;;;;;;;25.15;46.30;99914.41;5117078;27;20222;-72
2022/04/27 07:09:31;;;;;;;3.88;2.47;;;;;;;25.43;45.00;99910.66;5128525;27;20039;-71
2022/04/27 07:11:56;;;;;;;12.15;4.20;;;;;;;25.56;44.65;99906.72;5128790;27;20028;-70
2022/04/27 07:14:23;;;;;;;4.18;2.10;;;;;;;25.83;43.22;99912.97;5128414;27;20034;-72
2022/04/27 07:16:48;;;;;;;6.60;2.78;;;;;;;26.11;42.75;99911.88;5114662;28;20051;-70
2022/04/27 07:19:14;;;;;;;4.45;2.50;;;;;;;26.06;43.30;99911.84;5126971;27;20039;-70
2022/04/27 07:21:40;;;;;;;5.10;2.00;;;;;;;25.98;42.84;99921.25;5128512;27;20039;-71
2022/04/27 07:24:07;;;;;;;5.20;2.15;;;;;;;26.27;43.47;99916.34;5117352;27;20045;-70
2022/04/27 07:26:32;;;;;;;8.77;2.63;;;;;;;26.34;42.82;99911.53;5133693;27;20023;-72
2022/04/27 07:28:58;;;;;;;9.20;2.80;;;;;;;26.64;43.19;99912.78;5128377;27;20128;-72
2022/04/27 07:31:24;;;;;;;4.25;2.60;;;;;;;26.83;42.41;99915.88;5128311;27;20055;-70
2022/04/27 07:33:50;;;;;;;4.95;2.92;;;;;;;26.16;43.04;99908.38;5128211;27;20036;-70
2022/04/27 07:36:16;;;;;;;7.28;2.92;;;;;;;26.48;41.30;99906.47;5126678;27;20047;-70
2022/04/27 07:38:41;;;;;;;7.60;3.28;;;;;;;26.76;42.83;99909.88;5119391;28;20032;-72
2022/04/27 07:41:07;;;;;;;14.43;3.22;;;;;;;26.67;42.16;99904.13;5128058;27;20043;-70
2022/04/27 07:43:33;;;;;;;11.15;3.08;;;;;;;26.93;41.21;99897.72;5127719;27;20118;-72
2022/04/27 07:45:59;;;;;;;7.40;4.70;;;;;;;27.07;41.21;99908.97;5127506;27;20303;-72
2022/04/27 07:48:24;;;;;;;11.93;3.72;;;;;;;26.45;41.25;99901.56;5127807;27;20040;-70
2022/04/27 07:50:50;;;;;;;11.48;3.45;;;;;;;26.72;42.35;99904.13;5127726;27;20031;-71
2022/04/27 07:53:16;;;;;;;9.63;4.18;;;;;;;26.19;41.61;99903.25;5121745;27;20027;-72
2022/04/27 07:55:41;;;;;;;8.93;3.95;;;;;;;25.97;44.27;99903.31;5128263;27;20072;-70
2022/04/27 07:58:07;;;;;;;8.63;3.70;;;;;;;26.18;41.94;99907.03;5126294;27;20038;-70
2022/04/27 08:00:33;;;;;;;10.82;3.60;;;;;;;26.65;41.51;99903.56;5109141;27;20039;-72
2022/04/27 08:02:58;;;;;;;9.13;3.67;;;;;;;26.97;39.90;99900.72;5127113;27;20035;-70
2022/04/27 08:05:24;;;;;;;11.18;3.53;;;;;;;26.74;40.48;99901.97;5127693;27;20100;-70
2022/04/27 08:07:49;;;;;;;13.23;4.05;;;;;;;26.81;39.91;99897.13;5126254;27;20032;-72
2022/04/27 08:10:17;;;;;;;13.23;4.05;;;;;;;26.99;39.83;99898.59;5127303;27;20035;-70
2022/04/27 08:12:46;;;;;;;8.23;3.70;;;;;;;26.88;39.80;99894.16;5122405;27;20102;-72
2022/04/27 08:15:13;;;;;;;10.00;3.55;;;;;;;26.84;40.01;99893.88;5126468;27;20107;-70
2022/04/27 08:17:51;;;;;;;9.05;3.92;;;;;;;26.93;39.47;99902.34;5125664;27;20043;-71
2022/04/27 08:23:10;;;;;;;21.83;4.43;;;;;;;26.72;41.67;99894.09;5125802;27;20026;-72
2022/04/27 08:25:37;;;;;;;8.45;3.72;;;;;;;26.82;41.10;99890.59;5127539;27;20050;-72
2022/04/27 08:28:06;;;;;;;9.75;3.70;;;;;;;26.77;42.17;99893.31;5127599;27;20220;-72
2022/04/27 08:30:36;;;;;;;6.78;3.72;;;;;;;26.99;42.32;99891.25;5135438;27;20039;-71
2022/04/27 08:33:02;;;;;;;9.68;3.67;;;;;;;26.61;42.28;99886.97;5136425;27;20034;-72
2022/04/27 08:35:29;;;;;;;12.77;3.80;;;;;;;26.60;42.39;99887.25;5127198;27;20097;-72
2022/04/27 08:37:55;;;;;;;7.38;3.10;;;;;;;26.69;42.58;99885.66;5125816;27;20073;-70
2022/04/27 08:40:21;;;;;;;5.88;3.35;;;;;;;26.53;41.86;99873.91;5127134;27;20027;-70
2022/04/27 08:42:49;;;;;;;9.75;3.95;;;;;;;26.58;41.72;99867.69;5127416;27;20043;-72
2022/04/27 08:45:16;;;;;;;7.75;3.40;;;;;;;26.45;41.65;99868.16;5131849;27;20215;-72
2022/04/27 08:47:41;;;;;;;5.95;3.58;;;;;;;26.96;41.46;99869.19;5126783;27;20035;-72
2022/04/27 08:50:14;;;;;;;7.57;3.30;;;;;;;27.14;42.33;99871.47;5126803;27;20046;-72
2022/04/27 08:52:41;;;;;;;6.73;3.17;;;;;;;27.10;41.56;99864.13;5132444;27;20191;-72
2022/04/27 08:55:07;;;;;;;6.18;3.40;;;;;;;26.67;42.49;99875.06;5122007;27;20517;-72
2022/04/27 08:57:32;;;;;;;7.75;3.35;;;;;;;26.83;42.57;99865.06;5124026;27;20035;-73
2022/04/27 08:59:58;;;;;;;7.65;2.78;;;;;;;26.30;43.98;99872.38;5124782;27;20232;-70
2022/04/27 09:02:28;;;;;;;10.50;3.65;;;;;;;25.87;43.72;99865.25;5120604;27;20023;-70
2022/04/27 09:05:18;;;;;;;13.55;4.60;;;;;;;25.72;42.65;99860.53;5113157;28;20388;-70
2022/04/27 09:07:46;;;;;;;8.70;3.72;;;;;;;25.75;44.00;99856.47;5109336;27;20043;-72
2022/04/27 09:10:13;;;;;;;7.80;3.38;;;;;;;25.90;45.48;99859.31;5117838;27;20023;-70
2022/04/27 09:12:57;;;;;;;9.73;3.47;;;;;;;25.89;45.04;99849.53;5121214;27;20037;-70
2022/04/27 09:15:27;;;;;;;8.35;3.40;;;;;;;25.84;44.44;99862.25;5111730;28;20404;-70
2022/04/27 09:20:52;;;;;;;7.85;3.42;;;;;;;25.57;45.83;99846.00;5124439;27;20386;-72
2022/04/27 09:23:24;;;;;;;8.77;3.58;;;;;;;25.26;45.54;99856.53;5121255;27;20235;-70
2022/04/27 09:25:53;;;;;;;8.75;3.80;;;;;;;24.70;46.73;99850.44;5120767;27;20040;-72
2022/04/27 09:28:22;;;;;;;12.25;3.50;;;;;;;24.46;49.02;99849.03;5108547;28;20030;-72
2022/04/27 09:30:49;;;;;;;9.00;3.70;;;;;;;24.58;48.57;99848.94;5107393;28;20346;-72
2022/04/27 09:33:29;;;;;;;9.02;4.63;;;;;;;24.31;47.79;99838.00;5121202;28;20074;-70
2022/04/27 09:35:56;;;;;;;11.90;3.60;;;;;;;24.41;47.99;99843.56;5121274;28;20040;-72
2022/04/27 09:38:21;;;;;;;8.23;3.70;;;;;;;24.46;48.25;99840.91;5108327;28;20012;-70
2022/04/27 09:40:48;;;;;;;6.90;3.28;;;;;;;24.10;52.02;99839.56;5124928;28;20042;-70
2022/04/27 09:43:14;;;;;;;8.02;3.05;;;;;;;23.95;49.07;99834.75;5120408;28;20031;-70
2022/04/27 09:45:41;;;;;;;5.35;3.03;;;;;;;24.09;50.48;99829.81;5106086;28;20070;-70
2022/04/27 09:48:08;;;;;;;8.15;3.35;;;;;;;24.01;52.12;99828.34;5121446;28;20035;-70
2022/04/27 09:50:47;;;;;;;11.07;3.13;;;;;;;23.94;51.09;99829.59;5120940;28;21529;-70
2022/04/27 09:53:14;;;;;;;4.97;3.25;;;;;;;23.81;53.34;99818.00;5120419;28;20280;-72
2022/04/27 09:55:46;;;;;;;9.40;3.30;;;;;;;23.61;52.56;99822.28;5121222;28;20071;-72
2022/04/27 09:58:14;;;;;;;9.00;2.70;;;;;;;23.67;52.16;99822.13;5123026;28;20066;-72
2022/04/27 10:00:44;;;;;;;5.65;3.00;;;;;;;23.77;52.14;99819.56;5122274;28;20134;-72
2022/04/27 10:03:16;;;;;;;6.38;2.60;;;;;;;23.87;50.90;99816.22;5119937;28;20028;-72
2022/04/27 10:05:42;;;;;;;8.30;2.75;;;;;;;23.48;51.94;99790.97;5102166;28;20141;-70
2022/04/27 10:08:09;;;;;;;8.23;2.63;;;;;;;23.52;50.48;99814.53;5121796;28;20035;-70
2022/04/27 10:10:38;;;;;;;8.25;2.25;;;;;;;23.61;51.81;99803.34;5108084;28;20121;-70
2022/04/27 10:13:08;;;;;;;8.50;2.00;;;;;;;23.70;49.08;99807.28;5122523;28;20039;-72
2022/04/27 10:15:34;;;;;;;3.92;1.58;;;;;;;23.53;46.32;99804.56;5120563;28;20103;-70
2022/04/27 10:18:00;;;;;;;9.80;1.80;;;;;;;23.58;43.86;99810.06;5121585;28;20027;-71
2022/04/27 10:20:31;;;;;;;4.72;1.50;;;;;;;23.55;48.76;99805.97;5121277;27;20038;-72
2022/04/27 10:23:16;;;;;;;8.23;2.20;;;;;;;23.37;49.37;99798.06;5109841;28;20019;-72
2022/04/27 10:26:12;;;;;;;10.13;1.95;;;;;;;23.19;46.65;99803.69;5125302;27;20058;-72
2022/04/27 10:28:50;;;;;;;5.00;1.40;;;;;;;23.18;41.78;99802.88;5127238;27;20306;-72
2022/04/27 10:31:45;;;;;;;4.97;2.00;;;;;;;23.18;43.62;99808.28;5119169;27;20097;-72
2022/04/27 10:34:17;;;;;;;6.50;1.75;;;;;;;23.28;43.78;99796.00;5124827;27;20031;-70
2022/04/27 10:36:43;;;;;;;7.53;1.83;;;;;;;23.42;43.46;99800.88;5123721;27;20435;-72
2022/04/27 10:39:11;;;;;;;3.40;1.17;;;;;;;23.40;36.51;99800.28;5123342;27;20084;-70
2022/04/27 10:41:40;;;;;;;4.95;1.42;;;;;;;23.40;40.93;99788.66;5123224;27;20031;-70
2022/04/27 10:44:06;;;;;;;5.63;1.60;;;;;;;23.42;40.80;99789.22;5126575;27;20043;-71
2022/04/27 10:46:38;;;;;;;6.43;1.25;;;;;;;23.30;37.25;99789.31;5112036;27;20370;-72
2022/04/27 10:49:23;;;;;;;11.35;1.70;;;;;;;23.52;40.88;99790.22;5124969;27;20317;-71
2022/04/27 10:52:03;;;;;;;14.60;2.38;;;;;;;23.60;42.58;99793.63;5124137;27;20031;-70
2022/04/27 10:54:33;;;;;;;10.70;3.75;;;;;;;23.43;43.35;99785.47;5124624;27;20031;-70
2022/04/27 10:57:19;;;;;;;8.60;2.00;;;;;;;23.72;43.20;99787.06;5125110;27;20032;-70
2022/04/27 10:59:49;;;;;;;6.40;1.70;;;;;;;23.52;43.05;99790.22;5108418;27;20330;-72
2022/04/27 11:02:34;;;;;;;5.45;1.80;;;;;;;23.51;43.38;99780.47;5126077;27;20038;-70
2022/04/27 11:05:23;;;;;;;11.10;1.98;;;;;;;23.43;41.72;99777.34;5125531;27;20042;-72
2022/04/27 11:08:06;;;;;;;11.23;1.88;;;;;;;23.36;44.54;99772.13;5121962;27;20236;-72
2022/04/27 11:10:31;;;;;;;8.40;2.03;;;;;;;23.29;45.23;99779.56;5123872;27;20039;-70
2022/04/27 11:12:57;;;;;;;8.48;2.03;;;;;;;23.45;46.99;99773.34;5123479;27;20036;-72
2022/04/27 11:15:27;;;;;;;8.40;2.35;;;;;;;23.39;46.39;99754.59;5122615;27;20047;-72
2022/04/27 11:18:03;;;;;;;9.98;2.00;;;;;;;23.41;45.66;99766.78;5122445;27;20035;-72
2022/04/27 11:20:37;;;;;;;8.05;1.60;;;;;;;23.49;45.97;99758.28;5122887;27;20160;-70
2022/04/27 11:23:08;;;;;;;13.82;1.95;;;;;;;23.65;47.74;99769.38;5127131;27;20541;-71
2022/04/27 11:25:39;;;;;;;6.43;2.03;;;;;;;23.68;47.90;99768.88;5126147;27;20051;-72
2022/04/27 11:28:06;;;;;;;18.38;2.40;;;;;;;23.52;46.39;99755.09;5109536;27;20031;-72
2022/04/27 11:30:32;;;;;;;12.90;2.60;;;;;;;23.49;45.97;99758.28;5123685;27;20263;-70
2022/04/27 11:33:00;;;;;;;12.88;2.88;;;;;;;23.62;48.48;99753.63;5121177;27;20039;-70
2022/04/27 11:35:40;;;;;;;11.30;2.33;;;;;;;23.81;48.44;99746.91;5110672;27;20303;-72
2022/04/27 11:38:08;;;;;;;10.60;2.47;;;;;;;23.77;46.90;99738.47;5121676;27;20083;-70
2022/04/27 11:40:36;;;;;;;11.15;2.00;;;;;;;23.97;47.20;99743.38;5122334;27;20034;-72
2022/04/27 11:43:04;;;;;;;8.23;2.38;;;;;;;23.88;45.97;99745.66;5122510;27;20011;-72
2022/04/27 11:45:30;;;;;;;11.95;2.20;;;;;;;23.56;44.67;99737.34;5107216;27;20058;-72
2022/04/27 11:48:00;;;;;;;9.07;2.25;;;;;;;23.77;47.07;99727.66;5113184;27;20031;-70
2022/04/27 11:50:30;;;;;;;4.85;1.60;;;;;;;23.85;43.96;99723.69;5108005;28;20267;-72